TAR793 EGKK-DTTA
Flight info
| Callsign | TAR793 |
|---|---|
| Flight time | N/A |
| Altitude | 39000 |
| Route | SFD Y47 BENBO UL612 VEULE DCT DEKOD DCT DISAK DCT DIRMO DCT ETAMO DCT ADEKA DCT MOKDI DCT MEN DCT AMLIR DCT FJR DCT AMFAC DCT BATIV DCT PELOS DCT IPROM DCT CAR DCT NOLSI UA868 MEDAR |
| Aircraft | A20N/M-SDE2E3FGHIRWXY/LB1 |
Departure
| Time | 2026-05-07 17:55 |
|---|---|
| Airport | London Gatwick Airport (EGKK) |
Arrival
| Time | N/A |
|---|---|
| Airport | Tunis Carthage International Airport (DTTA) |
| Time | Latitude | Longitude | Altitude | Speed | Heading |
|---|---|---|---|---|---|
| 2026-05-07 17:22 | 51.15863 | -0.17522 | 208 ft | 0 kts | 347° |
| 2026-05-07 17:40 | 51.15854 | -0.17519 | 212 ft | 2 kts | 347° |
| 2026-05-07 17:40 | 51.15840 | -0.17514 | 218 ft | 2 kts | 347° |
| 2026-05-07 17:40 | 51.15826 | -0.17509 | 209 ft | 2 kts | 346° |
| 2026-05-07 17:41 | 51.15813 | -0.17503 | 215 ft | 2 kts | 345° |
| 2026-05-07 17:41 | 51.15800 | -0.17498 | 213 ft | 2 kts | 343° |
| 2026-05-07 17:41 | 51.15787 | -0.17491 | 219 ft | 2 kts | 338° |
| 2026-05-07 17:41 | 51.15775 | -0.17482 | 216 ft | 2 kts | 321° |
| 2026-05-07 17:42 | 51.15769 | -0.17471 | 220 ft | 1 kts | 284° |
| 2026-05-07 17:42 | 51.15768 | -0.17453 | 220 ft | 2 kts | 260° |
| 2026-05-07 17:42 | 51.15771 | -0.17432 | 214 ft | 2 kts | 257° |
| 2026-05-07 17:42 | 51.15774 | -0.17411 | 213 ft | 1 kts | 257° |
| 2026-05-07 17:43 | 51.15776 | -0.17400 | 214 ft | 1 kts | 257° |
| 2026-05-07 17:43 | 51.15777 | -0.17391 | 215 ft | 1 kts | 257° |
| 2026-05-07 17:43 | 51.15777 | -0.17390 | 214 ft | 0 kts | 257° |
| 2026-05-07 17:45 | 51.15777 | -0.17391 | 214 ft | 0 kts | 257° |
| 2026-05-07 17:45 | 51.15772 | -0.17427 | 217 ft | 4 kts | 257° |
| 2026-05-07 17:45 | 51.15765 | -0.17473 | 220 ft | 4 kts | 257° |
| 2026-05-07 17:45 | 51.15757 | -0.17530 | 212 ft | 7 kts | 258° |
| 2026-05-07 17:46 | 51.15747 | -0.17607 | 213 ft | 7 kts | 258° |
| 2026-05-07 17:46 | 51.15737 | -0.17683 | 211 ft | 7 kts | 257° |
| 2026-05-07 17:46 | 51.15726 | -0.17761 | 209 ft | 8 kts | 257° |
| 2026-05-07 17:46 | 51.15713 | -0.17851 | 212 ft | 9 kts | 257° |
| 2026-05-07 17:47 | 51.15699 | -0.17953 | 211 ft | 10 kts | 258° |
| 2026-05-07 17:47 | 51.15684 | -0.18065 | 215 ft | 12 kts | 257° |
| 2026-05-07 17:47 | 51.15664 | -0.18209 | 217 ft | 14 kts | 258° |
| 2026-05-07 17:47 | 51.15642 | -0.18372 | 209 ft | 16 kts | 257° |
| 2026-05-07 17:48 | 51.15616 | -0.18561 | 219 ft | 18 kts | 257° |
| 2026-05-07 17:48 | 51.15591 | -0.18747 | 217 ft | 14 kts | 258° |
| 2026-05-07 17:48 | 51.15542 | -0.18825 | 213 ft | 11 kts | 178° |
| 2026-05-07 17:48 | 51.15461 | -0.18798 | 210 ft | 13 kts | 167° |
| 2026-05-07 17:49 | 51.15372 | -0.18766 | 208 ft | 13 kts | 167° |
| 2026-05-07 17:49 | 51.15280 | -0.18734 | 214 ft | 14 kts | 168° |
| 2026-05-07 17:49 | 51.15187 | -0.18702 | 213 ft | 13 kts | 167° |
| 2026-05-07 17:49 | 51.15126 | -0.18750 | 214 ft | 11 kts | 255° |
| 2026-05-07 17:50 | 51.15108 | -0.18889 | 210 ft | 15 kts | 258° |
| 2026-05-07 17:50 | 51.15082 | -0.19078 | 214 ft | 20 kts | 257° |
| 2026-05-07 17:50 | 51.15051 | -0.19312 | 213 ft | 24 kts | 258° |
| 2026-05-07 17:50 | 51.15013 | -0.19580 | 218 ft | 26 kts | 257° |
| 2026-05-07 17:51 | 51.14976 | -0.19845 | 213 ft | 24 kts | 257° |
| 2026-05-07 17:51 | 51.14939 | -0.20108 | 219 ft | 25 kts | 258° |
| 2026-05-07 17:51 | 51.14904 | -0.20370 | 212 ft | 23 kts | 257° |
| 2026-05-07 17:51 | 51.14873 | -0.20586 | 215 ft | 17 kts | 249° |
| 2026-05-07 17:52 | 51.14782 | -0.20691 | 217 ft | 15 kts | 215° |
| 2026-05-07 17:52 | 51.14746 | -0.20843 | 213 ft | 15 kts | 258° |
| 2026-05-07 17:52 | 51.14725 | -0.21004 | 220 ft | 15 kts | 258° |
| 2026-05-07 17:52 | 51.14701 | -0.21169 | 210 ft | 16 kts | 258° |
| 2026-05-07 17:53 | 51.14670 | -0.21322 | 217 ft | 12 kts | 218° |
| 2026-05-07 17:53 | 51.14601 | -0.21322 | 214 ft | 11 kts | 166° |
| 2026-05-07 17:53 | 51.14536 | -0.21268 | 209 ft | 10 kts | 132° |
| 2026-05-07 17:53 | 51.14520 | -0.21160 | 214 ft | 10 kts | 78° |
| 2026-05-07 17:54 | 51.14540 | -0.21007 | 219 ft | 27 kts | 78° |
| 2026-05-07 17:54 | 51.14632 | -0.20339 | 214 ft | 95 kts | 77° |
| 2026-05-07 17:54 | 51.14819 | -0.18960 | 226 ft | 155 kts | 77° |
| 2026-05-07 17:54 | 51.15079 | -0.17249 | 729 ft | 161 kts | 79° |
| 2026-05-07 17:55 | 51.15315 | -0.15573 | 1653 ft | 150 kts | 80° |
| 2026-05-07 17:55 | 51.15461 | -0.14475 | 2095 ft | 157 kts | 80° |
| 2026-05-07 17:55 | 51.15706 | -0.12610 | 2416 ft | 187 kts | 79° |
| 2026-05-07 17:55 | 51.15992 | -0.10447 | 2886 ft | 209 kts | 80° |
| 2026-05-07 17:56 | 51.16030 | -0.08093 | 3670 ft | 216 kts | 103° |
| 2026-05-07 17:56 | 51.15300 | -0.06007 | 4510 ft | 223 kts | 139° |
| 2026-05-07 17:56 | 51.13900 | -0.04905 | 5333 ft | 230 kts | 163° |
| 2026-05-07 17:56 | 51.12325 | -0.04339 | 6221 ft | 234 kts | 168° |
| 2026-05-07 17:57 | 51.10713 | -0.03853 | 7093 ft | 238 kts | 169° |
| 2026-05-07 17:57 | 51.09033 | -0.03240 | 7653 ft | 258 kts | 166° |
| 2026-05-07 17:57 | 51.07255 | -0.02459 | 8319 ft | 270 kts | 165° |
| 2026-05-07 17:57 | 51.05454 | -0.01626 | 9216 ft | 275 kts | 165° |
| 2026-05-07 17:58 | 51.03577 | -0.00746 | 10154 ft | 279 kts | 165° |
| 2026-05-07 17:58 | 51.01723 | 0.00128 | 11005 ft | 283 kts | 165° |
| 2026-05-07 17:58 | 50.99822 | 0.01024 | 11901 ft | 287 kts | 165° |
| 2026-05-07 17:58 | 50.97894 | 0.01935 | 12814 ft | 291 kts | 165° |
| 2026-05-07 17:59 | 50.95933 | 0.02861 | 13727 ft | 294 kts | 165° |
| 2026-05-07 17:59 | 50.93958 | 0.03792 | 14531 ft | 299 kts | 165° |
| 2026-05-07 17:59 | 50.91948 | 0.04739 | 15283 ft | 303 kts | 165° |
| 2026-05-07 17:59 | 50.89913 | 0.05697 | 16041 ft | 308 kts | 165° |
| 2026-05-07 18:00 | 50.87842 | 0.06672 | 16784 ft | 312 kts | 165° |
| 2026-05-07 18:00 | 50.85744 | 0.07656 | 17528 ft | 316 kts | 166° |
| 2026-05-07 18:00 | 50.83619 | 0.08652 | 18281 ft | 321 kts | 166° |
| 2026-05-07 18:00 | 50.81466 | 0.09661 | 18955 ft | 324 kts | 166° |
| 2026-05-07 18:01 | 50.79285 | 0.10681 | 19649 ft | 328 kts | 166° |
| 2026-05-07 18:01 | 50.77069 | 0.11523 | 20343 ft | 329 kts | 174° |
| 2026-05-07 18:01 | 50.74787 | 0.11624 | 20927 ft | 332 kts | 187° |
| 2026-05-07 18:01 | 50.72441 | 0.11143 | 21207 ft | 346 kts | 192° |
| 2026-05-07 18:02 | 50.67578 | 0.09400 | 21721 ft | 374 kts | 196° |
| 2026-05-07 18:02 | 50.65031 | 0.08374 | 22196 ft | 380 kts | 196° |
| 2026-05-07 18:02 | 50.62450 | 0.07349 | 22776 ft | 384 kts | 195° |
| 2026-05-07 18:03 | 50.59839 | 0.06343 | 23366 ft | 388 kts | 195° |
| 2026-05-07 18:03 | 50.57200 | 0.05357 | 23886 ft | 391 kts | 195° |
| 2026-05-07 18:03 | 50.54541 | 0.04384 | 24353 ft | 394 kts | 194° |
| 2026-05-07 18:03 | 50.51862 | 0.03420 | 24811 ft | 397 kts | 194° |
| 2026-05-07 18:04 | 50.49117 | 0.02767 | 25258 ft | 401 kts | 186° |
| 2026-05-07 18:04 | 50.46319 | 0.02804 | 25695 ft | 406 kts | 176° |
| 2026-05-07 18:04 | 50.43534 | 0.03680 | 26122 ft | 412 kts | 165° |
| 2026-05-07 18:04 | 50.40881 | 0.05461 | 26545 ft | 418 kts | 154° |
| 2026-05-07 18:05 | 50.38384 | 0.07723 | 26948 ft | 421 kts | 150° |
| 2026-05-07 18:05 | 50.35908 | 0.10220 | 27357 ft | 424 kts | 148° |
| 2026-05-07 18:05 | 50.33457 | 0.12812 | 27758 ft | 427 kts | 148° |
| 2026-05-07 18:05 | 50.30991 | 0.15449 | 28145 ft | 429 kts | 148° |
| 2026-05-07 18:06 | 50.28513 | 0.18085 | 28523 ft | 432 kts | 148° |
| 2026-05-07 18:06 | 50.26013 | 0.20715 | 28893 ft | 434 kts | 148° |
| 2026-05-07 18:06 | 50.23492 | 0.23335 | 29246 ft | 437 kts | 149° |
| 2026-05-07 18:06 | 50.20949 | 0.25958 | 29606 ft | 439 kts | 149° |